Terminal Aerodrome Forecast
Issued by NWS Tuscon, AZ

Home | Current Version | Previous Version | Text Only | Print | Product List | Glossary On
Versions: 1 2 3 4 5 6 7 8 9 10 11 12 13 14 15
000
FTUS45 KTWC 250100 AAA
TAFTUS
TAF AMD
KTUS 250146Z 2502/2524 19006KT P6SM SCT140
     FM250215 23015G25KT P6SM SCT140
     FM250500 18008KT P6SM SKC
     FM251900 VRB04KT P6SM FEW080
     FM252200 31006KT P6SM VCSH SCT090 BKN130=

USA.gov is the U.S. government's official web portal to all federal, state and local government web resources and services.